Terminal Aerodrome Forecast
Issued by NWS Albany, NY

Home | Current Version | Previous Version | Text Only | Print | Product List | Glossary On
Versions: 1 2 3 4 5 6 7 8 9 10 11 12 13 14 15 16 17 18 19 20 21 22 23 24 25 26
000
FTUS41 KALY 201731
TAFALB
TAF
KALB 201731Z 2018/2118 30014G23KT P6SM BKN050
     FM210000 30012KT P6SM SCT050
     FM210400 32005KT P6SM FEW050
     FM211400 32012KT P6SM FEW050=

USA.gov is the U.S. government's official web portal to all federal, state and local government web resources and services.